Terminal Aerodrome Forecast
Issued by NWS

Home | Current Version | Previous Version | Text Only | Print | Product List | Glossary On
Versions: 1 2 3 4 5 6 7 8 9 10 11 12 13 14 15 16 17 18 19
000
FTUS43 KGRR 221100
TAFJXN
TAF
KJXN 221122Z 2212/2312 VRB03KT P6SM OVC029
     FM221300 30004KT P6SM BKN035
     FM221500 32008KT P6SM SCT040
     FM230100 24003KT P6SM SKC=

USA.gov is the U.S. government's official web portal to all federal, state and local government web resources and services.